Time;durP1;ratioP1;P1;durP2;ratioP2;P2;SDS_P1;SDS_P2;PMS_P1;PMS_P2;Temp;Humidity;BMP_temperature;BMP_pressure;BME280_temperature;BME280_humidity;BME280_pressure;Samples;Min_cycle;Max_cycle;Signal;HPM_P1;HPM_P2
2023/04/09 00:01:21;;;;;;;;;;;;;;;10.24;77.59;99929.29;107558;1254;69227;-36
2023/04/09 00:03:50;;;;;;;;;;;;;;;10.30;77.29;99929.95;107547;1258;74672;-36
2023/04/09 00:06:19;;;;;;;;;;;;;;;10.33;77.18;99925.61;107551;1255;60624;-36
2023/04/09 00:08:47;;;;;;;;;;;;;;;10.32;76.79;99922.05;107557;1258;61037;-37
2023/04/09 00:11:20;;;;;;;;;;;;;;;10.28;76.14;99919.60;107576;1256;73883;-37
2023/04/09 00:13:51;;;;;;;;;;;;;;;10.23;75.84;99916.05;107574;1254;69038;-37
2023/04/09 00:16:20;;;;;;;;;;;;;;;10.20;75.52;99917.58;107574;1254;73818;-37
2023/04/09 00:18:49;;;;;;;;;;;;;;;10.15;75.60;99916.77;107600;1259;61114;-37
2023/04/09 00:21:19;;;;;;;;;;;;;;;10.08;76.01;99916.34;107613;1254;61316;-37
2023/04/09 00:23:47;;;;;;;;;;;;;;;10.11;76.16;99916.50;107567;1256;74958;-37
2023/04/09 00:26:16;;;;;;;;;;;;;;;10.17;76.21;99919.80;107439;1256;177257;-37
2023/04/09 00:29:42;;;;;;;11.50;6.30;;;;;;;10.19;76.47;99916.92;104222;1292;600658;-37
2023/04/09 00:32:10;;;;;;;10.40;5.90;;;;;;;10.20;76.34;99917.20;106749;1267;61270;-38
2023/04/09 00:34:39;;;;;;;13.80;5.90;;;;;;;10.21;76.46;99915.21;106709;1266;61577;-37
2023/04/09 00:37:09;;;;;;;;;;;;;;;10.23;76.38;99915.29;106717;1271;73707;-37
2023/04/09 00:39:38;;;;;;;9.80;5.40;;;;;;;10.28;76.31;99914.23;106779;1267;67989;-37
2023/04/09 00:42:07;;;;;;;9.90;5.40;;;;;;;10.34;76.29;99911.95;106703;1266;73869;-37
2023/04/09 00:44:36;;;;;;;11.20;5.80;;;;;;;10.39;76.20;99917.13;106580;1264;59296;-37
2023/04/09 00:47:06;;;;;;;9.70;5.40;;;;;;;10.44;76.11;99918.42;106672;1265;61402;-37
2023/04/09 00:49:34;;;;;;;12.00;5.30;;;;;;;10.47;75.93;99913.94;106660;1263;73556;-37
2023/04/09 00:52:06;;;;;;;8.90;5.10;;;;;;;10.47;75.82;99913.87;106743;1268;69187;-38
2023/04/09 00:54:37;;;;;;;10.20;5.40;;;;;;;10.49;75.65;99919.11;107256;1257;73623;-38
2023/04/09 00:57:06;;;;;;;9.70;5.60;;;;;;;10.56;74.85;99916.59;107227;1257;63232;-38
2023/04/09 00:59:36;;;;;;;9.60;5.50;;;;;;;10.55;73.78;99914.84;107149;1257;61222;-38
2023/04/09 01:02:04;;;;;;;8.50;5.50;;;;;;;10.43;73.49;99911.64;107227;1256;74017;-37
2023/04/09 01:04:33;;;;;;;7.70;5.30;;;;;;;10.45;73.26;99914.67;107327;1261;67375;-37
2023/04/09 01:07:09;;;;;;;7.80;4.30;;;;;;;10.43;73.21;99912.89;107292;1257;73863;-37
2023/04/09 01:09:55;;;;;;;12.10;5.20;;;;;;;10.40;72.93;99914.30;107294;1257;61534;-36
2023/04/09 01:12:34;;;;;;;9.80;5.40;;;;;;;10.37;73.10;99909.70;107312;1257;60240;-37
2023/04/09 01:15:11;;;;;;;9.00;5.10;;;;;;;10.32;73.43;99911.27;107201;1257;74005;-37
2023/04/09 01:17:46;;;;;;;9.00;4.30;;;;;;;10.34;73.65;99908.09;107321;1257;68905;-37
2023/04/09 01:20:28;;;;;;;7.90;4.70;;;;;;;10.39;73.87;99908.05;107356;1257;72672;-37
2023/04/09 01:23:14;;;;;;;9.70;5.00;;;;;;;10.44;73.93;99912.08;107351;1257;61270;-37
2023/04/09 01:25:59;;;;;;;10.90;5.30;;;;;;;10.46;73.92;99915.70;107269;1257;61476;-37
2023/04/09 01:28:41;;;;;;;8.00;5.10;;;;;;;10.46;74.00;99915.92;107230;1257;74198;-37
2023/04/09 01:31:12;;;;;;;9.60;5.00;;;;;;;10.44;73.85;99917.11;107290;1257;66729;-37
2023/04/09 01:33:41;;;;;;;9.60;4.60;;;;;;;10.47;73.85;99917.59;107241;1257;72993;-37
2023/04/09 01:36:10;;;;;;;7.80;5.00;;;;;;;10.57;73.66;99919.24;107278;1261;61734;-37
2023/04/09 01:38:40;;;;;;;10.90;5.00;;;;;;;10.63;73.65;99919.88;107330;1257;59996;-37
2023/04/09 01:41:13;;;;;;;10.10;5.50;;;;;;;10.66;73.47;99916.85;107343;1257;74246;-37
2023/04/09 01:43:41;;;;;;;8.40;5.30;;;;;;;10.66;73.32;99919.59;107269;1257;69217;-37
2023/04/09 01:46:10;;;;;;;9.10;5.50;;;;;;;10.67;73.29;99920.91;107219;1257;74132;-37
2023/04/09 01:48:39;;;;;;;9.20;4.90;;;;;;;10.69;73.17;99923.76;107178;1263;61279;-37
2023/04/09 01:51:12;;;;;;;14.00;5.20;;;;;;;10.69;72.83;99923.46;107265;1259;61363;-37
2023/04/09 01:53:42;;;;;;;9.70;5.00;;;;;;;10.74;72.41;99926.15;107233;1263;73131;-37
2023/04/09 01:56:13;;;;;;;9.40;4.80;;;;;;;10.74;71.96;99928.95;107294;1257;69079;-37
2023/04/09 01:58:44;;;;;;;8.00;5.20;;;;;;;10.65;71.79;99918.55;107286;1258;73601;-37
2023/04/09 02:01:19;;;;;;;7.70;5.00;;;;;;;10.66;71.43;99927.63;107188;1257;61577;-37
2023/04/09 02:03:54;;;;;;;7.10;5.10;;;;;;;10.55;71.35;99928.81;107223;1257;61371;-37
2023/04/09 02:06:46;;;;;;;8.30;4.80;;;;;;;10.40;71.47;99926.73;107214;1259;72049;-37
2023/04/09 02:09:15;;;;;;;10.10;5.10;;;;;;;10.30;71.56;99924.77;107235;1260;69127;-37
2023/04/09 02:11:45;;;;;;;11.10;4.90;;;;;;;10.21;71.75;99927.15;107187;1263;74050;-37
2023/04/09 02:14:14;;;;;;;10.40;4.80;;;;;;;10.22;71.72;99925.38;107251;1262;62983;-37
2023/04/09 02:16:43;;;;;;;9.30;4.60;;;;;;;10.24;71.75;99925.98;107277;1257;61513;-37
2023/04/09 02:19:11;;;;;;;10.20;4.90;;;;;;;10.25;71.88;99923.84;107209;1257;74100;-37
2023/04/09 02:21:40;;;;;;;7.00;4.70;;;;;;;10.25;71.93;99926.77;107269;1257;69143;-37
2023/04/09 02:24:08;;;;;;;8.80;4.80;;;;;;;10.23;71.83;99926.86;107256;1257;73850;-37
2023/04/09 02:26:37;;;;;;;8.70;4.40;;;;;;;10.20;71.79;99924.08;107221;1258;61577;-37
2023/04/09 02:29:05;;;;;;;8.10;4.40;;;;;;;10.18;71.74;99922.15;107296;1257;61849;-37
2023/04/09 02:31:34;;;;;;;6.90;4.00;;;;;;;10.15;71.60;99920.81;107264;1258;74231;-37
2023/04/09 02:34:02;;;;;;;7.30;4.10;;;;;;;10.15;71.42;99920.21;107254;1257;69177;-37
2023/04/09 02:36:32;;;;;;;9.00;4.50;;;;;;;10.16;71.25;99921.09;107225;1257;73642;-37
2023/04/09 02:39:00;;;;;;;9.00;4.80;;;;;;;10.13;71.17;99925.01;107315;1258;61536;-38
2023/04/09 02:41:36;;;;;;;9.10;4.90;;;;;;;10.11;71.18;99925.10;107262;1257;61588;-38
2023/04/09 02:44:04;;;;;;;6.60;5.10;;;;;;;10.03;71.02;99916.81;107273;1257;73261;-38
2023/04/09 02:46:33;;;;;;;8.50;4.70;;;;;;;10.07;70.96;99930.31;107269;1258;69118;-38
2023/04/09 02:49:02;;;;;;;7.40;4.70;;;;;;;9.99;70.97;99927.07;107290;1257;73735;-38
2023/04/09 02:51:34;;;;;;;7.90;5.00;;;;;;;9.92;71.03;99931.73;107201;1257;61654;-38
2023/04/09 02:54:09;;;;;;;9.80;5.00;;;;;;;9.87;71.21;99936.54;107279;1257;60559;-38
2023/04/09 02:56:37;;;;;;;9.10;4.00;;;;;;;9.89;71.17;99930.26;107273;1257;74401;-38
2023/04/09 02:59:06;;;;;;;9.50;4.70;;;;;;;9.93;71.15;99929.38;107256;1263;69138;-38
2023/04/09 03:01:36;;;;;;;7.90;4.70;;;;;;;9.93;70.93;99928.35;107229;1263;72663;-38
2023/04/09 03:04:04;;;;;;;6.20;4.80;;;;;;;9.91;70.87;99930.15;107246;1263;60044;-38
2023/04/09 03:06:33;;;;;;;9.50;5.20;;;;;;;9.88;70.90;99933.63;107252;1262;61522;-38
2023/04/09 03:09:04;;;;;;;9.80;5.40;;;;;;;9.79;70.74;99926.40;107215;1263;73937;-38
2023/04/09 03:11:35;;;;;;;8.00;4.90;;;;;;;9.81;70.68;99938.58;107181;1260;68994;-38
2023/04/09 03:14:04;;;;;;;8.80;5.10;;;;;;;9.76;70.85;99938.13;107085;1263;75212;-38
2023/04/09 03:16:34;;;;;;;11.50;5.00;;;;;;;9.72;70.84;99937.54;107137;1257;61732;-38
2023/04/09 03:19:02;;;;;;;11.10;4.90;;;;;;;9.73;70.70;99932.91;107256;1261;61539;-38
2023/04/09 03:21:32;;;;;;;11.60;5.10;;;;;;;9.74;70.75;99938.36;107241;1260;74325;-38
2023/04/09 03:24:01;;;;;;;9.20;5.00;;;;;;;9.72;70.71;99937.75;107285;1257;69186;-38
2023/04/09 03:26:34;;;;;;;13.90;6.20;;;;;;;9.68;70.74;99942.11;107286;1257;72988;-38
2023/04/09 03:29:09;;;;;;;;;;;;;;;9.63;70.86;99945.29;107179;1262;61251;-38
2023/04/09 03:31:38;;;;;;;9.60;6.80;;;;;;;9.54;71.28;99944.22;107369;1257;61325;-38
2023/04/09 03:34:07;;;;;;;8.20;4.80;;;;;;;9.47;71.62;99954.13;107296;1258;74174;-38
2023/04/09 03:36:36;;;;;;;9.80;6.20;;;;;;;9.45;71.71;99952.22;107246;1262;69193;-38
2023/04/09 03:39:11;;;;;;;9.70;6.00;;;;;;;9.44;71.84;99953.17;107251;1257;72568;-38
2023/04/09 03:41:42;;;;;;;11.30;5.40;;;;;;;9.48;71.97;99949.54;107151;1262;62882;-38
2023/04/09 03:44:15;;;;;;;8.90;5.50;;;;;;;9.56;71.99;99946.08;107169;1261;61210;-38
2023/04/09 03:47:02;;;;;;;7.30;5.70;;;;;;;9.58;72.01;99940.02;107294;1257;74526;-38
2023/04/09 03:49:34;;;;;;;8.40;5.50;;;;;;;9.54;71.87;99933.64;107259;1262;69118;-38
2023/04/09 03:52:10;;;;;;;9.30;5.70;;;;;;;9.47;72.09;99934.11;107220;1262;73568;-38
2023/04/09 03:54:42;;;;;;;12.40;6.00;;;;;;;9.42;72.36;99932.11;107277;1257;61035;-38
2023/04/09 03:57:17;;;;;;;7.90;5.20;;;;;;;9.38;72.71;99929.58;107234;1257;61380;-38
2023/04/09 03:59:50;;;;;;;8.60;5.60;;;;;;;9.43;72.82;99927.80;107249;1258;74062;-38
2023/04/09 04:02:21;;;;;;;7.20;5.10;;;;;;;9.49;72.87;99926.28;107226;1257;68233;-38
2023/04/09 04:04:57;;;;;;;8.60;4.90;;;;;;;9.51;73.00;99925.89;107210;1257;73898;-38
2023/04/09 04:07:29;;;;;;;10.70;5.40;;;;;;;9.54;73.26;99926.57;107294;1257;61569;-38
2023/04/09 04:10:05;;;;;;;9.40;5.40;;;;;;;9.58;73.22;99935.77;107286;1258;61193;-38
2023/04/09 04:12:33;;;;;;;6.60;5.20;;;;;;;9.60;73.02;99937.23;107311;1261;73602;-38
2023/04/09 04:15:19;;;;;;;9.00;5.50;;;;;;;9.61;72.80;99936.01;107285;1263;69171;-38
2023/04/09 04:17:53;;;;;;;11.80;5.60;;;;;;;9.60;73.08;99937.33;107229;1261;73552;-38
2023/04/09 04:20:39;;;;;;;9.00;4.80;;;;;;;9.69;72.97;99935.27;107257;1262;62010;-38
2023/04/09 04:23:30;;;;;;;11.30;5.10;;;;;;;9.80;73.00;99939.10;107296;1257;62918;-38
2023/04/09 04:26:10;;;;;;;8.10;5.30;;;;;;;9.77;73.54;99930.21;107245;1257;74229;-38
2023/04/09 04:28:39;;;;;;;10.60;5.20;;;;;;;9.85;73.90;99940.65;107233;1261;68863;-38
2023/04/09 04:31:09;;;;;;;;;;;;;;;9.86;74.26;99941.23;107191;1262;72677;-38
2023/04/09 04:33:40;;;;;;;8.40;4.70;;;;;;;9.85;74.42;99940.55;107164;1263;62018;-38
2023/04/09 04:36:12;;;;;;;7.60;4.80;;;;;;;9.89;74.62;99944.02;107196;1262;61158;-38
2023/04/09 04:38:45;;;;;;;8.30;4.60;;;;;;;10.03;74.30;99943.05;107194;1257;74126;-38
2023/04/09 04:41:17;;;;;;;11.10;6.00;;;;;;;10.11;74.28;99941.83;107231;1258;68874;-38
2023/04/09 04:43:53;;;;;;;11.90;5.50;;;;;;;10.18;74.15;99948.79;107254;1257;73526;-38
2023/04/09 04:46:26;;;;;;;11.20;5.70;;;;;;;10.22;73.83;99945.50;107249;1257;61537;-38
2023/04/09 04:48:55;;;;;;;14.00;6.00;;;;;;;10.21;73.80;99944.39;107327;1257;61572;-38
2023/04/09 04:51:26;;;;;;;13.40;6.20;;;;;;;10.18;73.68;99950.42;107252;1257;74992;-38
2023/04/09 04:54:04;;;;;;;9.90;5.60;;;;;;;10.20;73.62;99948.07;107244;1258;69205;-38
2023/04/09 04:56:35;;;;;;;12.80;6.10;;;;;;;10.22;73.50;99950.17;107275;1258;72739;-38
2023/04/09 04:59:15;;;;;;;8.70;5.90;;;;;;;10.22;73.56;99953.55;107233;1258;60411;-38
2023/04/09 05:01:57;;;;;;;11.20;6.40;;;;;;;10.21;73.47;99954.38;107260;1257;61538;-38
2023/04/09 05:04:26;;;;;;;10.20;6.00;;;;;;;10.15;73.55;99956.04;107244;1260;74819;-38
2023/04/09 05:06:59;;;;;;;11.70;6.30;;;;;;;10.10;73.51;99959.45;107265;1258;69089;-38
2023/04/09 05:09:28;;;;;;;10.60;5.90;;;;;;;10.11;73.64;99959.70;107320;1262;73633;-38
2023/04/09 05:12:08;;;;;;;11.80;5.80;;;;;;;10.10;73.77;99962.54;107278;1257;61558;-38
2023/04/09 05:14:41;;;;;;;13.30;6.60;;;;;;;10.00;74.19;99966.66;107246;1257;61415;-38
2023/04/09 05:17:10;;;;;;;14.50;6.00;;;;;;;9.92;74.79;99971.13;107238;1257;75047;-38
2023/04/09 05:19:43;;;;;;;7.10;5.40;;;;;;;9.93;75.31;99970.68;107239;1262;68870;-38
2023/04/09 05:22:12;;;;;;;11.80;6.50;;;;;;;10.05;75.18;99972.36;107259;1260;73856;-38
2023/04/09 05:24:43;;;;;;;10.60;6.90;;;;;;;10.10;75.27;99969.34;107234;1260;61419;-38
2023/04/09 05:27:12;;;;;;;11.90;7.00;;;;;;;10.14;75.61;99968.41;107188;1263;61204;-38
2023/04/09 05:29:40;;;;;;;15.10;6.90;;;;;;;10.17;75.66;99966.89;107294;1257;75003;-38
2023/04/09 05:32:20;;;;;;;14.10;6.90;;;;;;;10.23;75.85;99971.07;107293;1261;68171;-38
2023/04/09 05:34:49;;;;;;;12.10;7.30;;;;;;;10.37;75.50;99969.49;107291;1258;73673;-38
2023/04/09 05:37:17;;;;;;;17.30;7.50;;;;;;;10.47;75.31;99967.45;107270;1261;60819;-38
2023/04/09 05:39:52;;;;;;;12.50;7.50;;;;;;;10.51;75.37;99965.02;107260;1257;61320;-38
2023/04/09 05:42:21;;;;;;;;;;;;;;;10.56;75.53;99964.14;107283;1257;74933;-38
2023/04/09 05:44:53;;;;;;;13.60;8.50;;;;;;;10.60;75.99;99965.67;107265;1258;68834;-39
2023/04/09 05:47:22;;;;;;;16.00;9.20;;;;;;;10.74;75.99;99968.02;107249;1257;74001;-38
2023/04/09 05:50:08;;;;;;;13.10;8.50;;;;;;;10.83;75.69;99968.48;107165;1257;61354;-38
2023/04/09 05:52:42;;;;;;;14.90;8.60;;;;;;;10.87;75.50;99968.81;107072;1258;61479;-38
2023/04/09 05:55:12;;;;;;;12.30;8.40;;;;;;;10.90;75.10;99971.08;107247;1260;73033;-38
2023/04/09 05:57:44;;;;;;;15.50;8.40;;;;;;;11.01;75.15;99972.52;107244;1260;68929;-38
2023/04/09 06:00:15;;;;;;;14.90;9.10;;;;;;;11.14;74.93;99978.21;107146;1257;73547;-38
2023/04/09 06:02:44;;;;;;;14.50;9.30;;;;;;;11.21;74.51;99976.63;107311;1259;61252;-38
2023/04/09 06:05:14;;;;;;;;;;;;;;;11.27;74.57;99974.45;107294;1261;60570;-38
2023/04/09 06:07:43;;;;;;;16.00;9.20;;;;;;;11.32;74.58;99974.66;107235;1261;74015;-38
2023/04/09 06:10:12;;;;;;;13.40;7.90;;;;;;;11.39;74.77;99978.48;107266;1261;68826;-38
2023/04/09 06:12:40;;;;;;;13.20;7.60;;;;;;;11.59;74.25;99975.95;107200;1260;73571;-38
2023/04/09 06:15:15;;;;;;;11.80;8.20;;;;;;;11.78;73.36;99974.04;107153;1258;61236;-38
2023/04/09 06:17:45;;;;;;;12.40;8.90;;;;;;;11.88;72.33;99976.83;107228;1258;61183;-38
2023/04/09 06:20:15;;;;;;;12.50;9.10;;;;;;;11.92;71.95;99976.70;107232;1259;75066;-38
2023/04/09 06:22:47;;;;;;;13.80;9.10;;;;;;;12.01;71.65;99980.55;107282;1258;69200;-38
2023/04/09 06:25:16;;;;;;;10.50;8.00;;;;;;;12.10;71.67;99977.27;107251;1257;71859;-38
2023/04/09 06:27:46;;;;;;;11.80;8.60;;;;;;;12.24;70.53;99979.59;107232;1260;61207;-38
2023/04/09 06:30:17;;;;;;;17.10;8.70;;;;;;;12.32;70.24;99983.58;107232;1261;61617;-38
2023/04/09 06:32:47;;;;;;;14.10;9.30;;;;;;;12.37;69.70;99982.45;107252;1257;75511;-38
2023/04/09 06:35:22;;;;;;;15.40;9.30;;;;;;;12.39;69.52;99987.92;107275;1261;69141;-38
2023/04/09 06:37:51;;;;;;;19.10;10.10;;;;;;;12.42;69.84;99989.31;107292;1260;71614;-38
2023/04/09 06:40:21;;;;;;;15.20;8.80;;;;;;;12.48;69.87;99988.27;107238;1257;63181;-38
2023/04/09 06:42:50;;;;;;;14.00;9.70;;;;;;;12.56;68.74;99987.74;107267;1257;61513;-38
2023/04/09 06:45:27;;;;;;;16.10;9.80;;;;;;;12.51;68.34;99987.42;107321;1257;74706;-38
2023/04/09 06:47:56;;;;;;;15.70;10.50;;;;;;;12.44;68.74;99991.06;107308;1257;68912;-38
2023/04/09 06:50:30;;;;;;;20.70;10.50;;;;;;;12.38;68.72;99991.00;107265;1258;73824;-38
2023/04/09 06:53:00;;;;;;;20.20;9.50;;;;;;;12.33;69.28;99995.31;107311;1256;63207;-38
2023/04/09 06:55:28;;;;;;;15.90;9.40;;;;;;;12.39;69.27;99996.23;107262;1257;61532;-38
2023/04/09 06:58:00;;;;;;;14.80;9.30;;;;;;;12.47;69.65;99987.62;107266;1258;74718;-38
2023/04/09 07:00:29;;;;;;;;;;;;;;;12.73;68.95;99995.55;107254;1257;69126;-38
2023/04/09 07:03:13;;;;;;;14.10;9.10;;;;;;;12.86;67.81;99993.55;107287;1260;73600;-38
2023/04/09 07:05:43;;;;;;;18.40;10.40;;;;;;;12.92;66.97;99999.44;107340;1257;60521;-38
2023/04/09 07:08:11;;;;;;;22.90;9.30;;;;;;;12.95;66.16;100001.50;107323;1256;61529;-38
2023/04/09 07:10:41;;;;;;;17.20;9.10;;;;;;;12.88;66.11;100006.09;107329;1258;74168;-38
2023/04/09 07:13:12;;;;;;;14.20;8.50;;;;;;;12.85;66.54;100010.39;107325;1260;68753;-38
2023/04/09 07:15:42;;;;;;;15.00;9.80;;;;;;;12.83;66.77;100011.23;107388;1257;72708;-38
2023/04/09 07:18:15;;;;;;;14.30;9.80;;;;;;;12.82;67.20;100009.27;107381;1256;60542;-37
2023/04/09 07:20:46;;;;;;;13.90;9.80;;;;;;;12.81;67.75;100009.80;107363;1257;60430;-36
2023/04/09 07:23:15;;;;;;;14.60;9.20;;;;;;;12.81;67.44;100008.53;107295;1257;74034;-37
2023/04/09 07:25:43;;;;;;;19.30;9.50;;;;;;;12.82;67.21;100008.17;107322;1258;67995;-37
2023/04/09 07:28:13;;;;;;;18.70;9.80;;;;;;;12.76;67.45;100002.14;107396;1257;72994;-36
2023/04/09 07:30:41;;;;;;;17.50;10.70;;;;;;;12.83;67.64;100009.28;107350;1257;61576;-37
2023/04/09 07:33:09;;;;;;;18.90;11.20;;;;;;;12.91;67.66;100005.23;107317;1258;60460;-37
2023/04/09 07:35:38;;;;;;;17.10;10.70;;;;;;;13.02;67.81;100006.39;107326;1257;75009;-37
2023/04/09 07:38:07;;;;;;;17.10;10.40;;;;;;;13.13;66.89;100005.83;107314;1257;69177;-37
2023/04/09 07:40:40;;;;;;;17.60;10.20;;;;;;;13.24;66.07;100002.48;107218;1260;73870;-37
2023/04/09 07:43:09;;;;;;;16.50;10.50;;;;;;;13.35;66.32;100008.36;107224;1260;61301;-37
2023/04/09 07:45:38;;;;;;;19.10;11.20;;;;;;;13.48;66.08;100009.44;107246;1257;61612;-37
2023/04/09 07:48:08;;;;;;;16.30;10.90;;;;;;;13.62;66.00;100009.05;107246;1260;75037;-37
2023/04/09 07:50:37;;;;;;;19.10;11.60;;;;;;;13.75;65.50;100011.70;107348;1257;68963;-37
2023/04/09 07:53:06;;;;;;;18.50;10.80;;;;;;;13.86;64.98;100010.00;107379;1257;73836;-37
2023/04/09 07:55:36;;;;;;;17.20;10.30;;;;;;;13.92;64.97;100008.85;107294;1260;60504;-37
2023/04/09 07:58:05;;;;;;;18.90;9.40;;;;;;;13.98;64.45;100003.72;107308;1257;61599;-37
2023/04/09 08:00:40;;;;;;;17.00;9.90;;;;;;;14.06;64.41;100001.66;107351;1257;74781;-37
2023/04/09 08:03:10;;;;;;;15.40;10.10;;;;;;;14.12;64.17;100006.35;107364;1257;69543;-37
2023/04/09 08:05:39;;;;;;;15.90;10.10;;;;;;;14.19;64.29;100003.81;107338;1257;73839;-37
2023/04/09 08:08:12;;;;;;;16.80;10.50;;;;;;;14.29;63.75;100003.48;107317;1258;61446;-37
2023/04/09 08:10:42;;;;;;;18.60;11.30;;;;;;;14.33;63.61;100002.14;107325;1257;61313;-37
2023/04/09 08:13:11;;;;;;;18.20;9.90;;;;;;;14.38;63.39;99997.06;107296;1257;75039;-38
2023/04/09 08:15:43;;;;;;;13.70;10.10;;;;;;;14.48;63.65;99995.27;107304;1257;69100;-37
2023/04/09 08:18:11;;;;;;;13.80;9.30;;;;;;;14.66;63.10;99990.91;107281;1258;73858;-37
2023/04/09 08:20:43;;;;;;;13.70;9.40;;;;;;;14.88;62.54;99992.19;107311;1258;61382;-37
2023/04/09 08:23:22;;;;;;;14.60;9.20;;;;;;;15.07;61.23;99987.33;107218;1257;61826;-38
2023/04/09 08:25:51;;;;;;;15.10;9.80;;;;;;;15.14;60.39;99985.20;107274;1257;74853;-38
2023/04/09 08:28:20;;;;;;;15.10;9.10;;;;;;;15.16;60.09;99985.70;107227;1257;69441;-37
2023/04/09 08:30:50;;;;;;;14.90;9.40;;;;;;;15.18;60.19;99983.93;107258;1257;72791;-37
2023/04/09 08:33:19;;;;;;;12.40;6.90;;;;;;;15.22;60.17;99981.79;107252;1256;60417;-37
2023/04/09 08:35:47;;;;;;;13.20;9.10;;;;;;;15.30;60.07;99983.80;107241;1257;60222;-37
2023/04/09 08:38:18;;;;;;;13.10;8.50;;;;;;;15.32;59.84;99984.07;107271;1257;73831;-37
2023/04/09 08:40:46;;;;;;;12.90;9.20;;;;;;;15.32;58.84;99987.19;107320;1258;67598;-37
2023/04/09 08:43:15;;;;;;;13.10;8.60;;;;;;;15.26;58.93;99983.61;107262;1257;72858;-37
2023/04/09 08:45:44;;;;;;;14.00;8.70;;;;;;;15.22;59.48;99980.63;107270;1257;61568;-38
2023/04/09 08:48:12;;;;;;;13.80;8.30;;;;;;;15.31;59.63;99978.20;107252;1257;61559;-37
2023/04/09 08:50:45;;;;;;;12.50;7.10;;;;;;;15.44;59.62;99974.97;107258;1256;74887;-37
2023/04/09 08:53:13;;;;;;;12.90;6.90;;;;;;;15.53;57.28;99972.65;107269;1260;69105;-37
2023/04/09 08:55:46;;;;;;;12.30;6.70;;;;;;;15.62;56.84;99968.29;107117;1257;73861;-37
2023/04/09 08:58:15;;;;;;;12.80;6.30;;;;;;;15.71;56.27;99972.73;107253;1257;61632;-37
2023/04/09 09:00:44;;;;;;;;;;;;;;;15.75;54.94;99969.26;107281;1257;60450;-37
2023/04/09 09:03:14;;;;;;;8.00;6.00;;;;;;;15.76;55.98;99970.43;107163;1260;74555;-37
2023/04/09 09:05:44;;;;;;;15.40;6.80;;;;;;;15.91;57.05;99968.90;107180;1257;67956;-38
2023/04/09 09:08:23;;;;;;;11.30;6.30;;;;;;;16.25;57.04;99966.30;107134;1257;72680;-37
2023/04/09 09:10:51;;;;;;;9.30;5.10;;;;;;;16.70;56.20;99963.32;107213;1257;61306;-37
2023/04/09 09:13:24;;;;;;;7.60;4.20;;;;;;;17.18;51.05;99961.52;107247;1257;61502;-37
2023/04/09 09:15:55;;;;;;;8.50;5.00;;;;;;;17.48;48.35;99962.01;107271;1260;74709;-37
2023/04/09 09:18:38;;;;;;;9.20;4.50;;;;;;;17.56;47.81;99957.94;107181;1261;69106;-37
2023/04/09 09:21:13;;;;;;;10.40;4.70;;;;;;;17.57;48.42;99960.37;107263;1257;72282;-37
2023/04/09 09:23:41;;;;;;;9.40;4.40;;;;;;;17.59;47.39;99961.17;107359;1257;61289;-37
2023/04/09 09:26:13;;;;;;;8.30;4.60;;;;;;;17.68;46.89;99955.55;107241;1256;60930;-37
2023/04/09 09:28:45;;;;;;;9.40;4.70;;;;;;;17.83;47.65;99957.64;107273;1256;74697;-37
2023/04/09 09:31:15;;;;;;;7.80;4.40;;;;;;;17.96;47.13;99956.92;107272;1257;69155;-37
2023/04/09 09:33:49;;;;;;;9.30;5.10;;;;;;;18.03;45.93;99952.29;107265;1257;73913;-37
2023/04/09 09:36:33;;;;;;;11.50;5.10;;;;;;;18.02;46.41;99954.71;107304;1256;61182;-37
2023/04/09 09:39:08;;;;;;;9.70;4.70;;;;;;;17.95;46.08;99953.09;107294;1257;60511;-37
2023/04/09 09:41:44;;;;;;;11.40;5.00;;;;;;;17.93;46.46;99955.98;107261;1257;74839;-37
2023/04/09 09:44:30;;;;;;;8.40;5.20;;;;;;;18.00;46.70;99950.80;107324;1260;67631;-37
2023/04/09 09:46:58;;;;;;;9.00;4.40;;;;;;;18.09;46.07;99950.48;107152;1257;72666;-37
2023/04/09 09:49:27;;;;;;;11.30;5.80;;;;;;;18.20;46.88;99946.91;107076;1258;61563;-37
2023/04/09 09:51:56;;;;;;;10.60;5.20;;;;;;;18.26;45.14;99948.16;107181;1257;61528;-37
2023/04/09 09:54:32;;;;;;;7.90;5.00;;;;;;;18.20;43.98;99939.70;107008;1263;75014;-38
2023/04/09 09:57:04;;;;;;;11.30;4.90;;;;;;;18.11;44.24;99941.90;107258;1257;66837;-38
2023/04/09 09:59:46;;;;;;;11.40;5.30;;;;;;;18.08;45.12;99941.14;107220;1257;73553;-38
2023/04/09 10:02:19;;;;;;;9.70;4.50;;;;;;;18.12;45.37;99938.00;107272;1257;60412;-38
2023/04/09 10:04:52;;;;;;;7.60;5.10;;;;;;;18.15;44.80;99936.42;107259;1258;61518;-38
2023/04/09 10:07:25;;;;;;;10.90;5.30;;;;;;;18.10;44.48;99937.06;107249;1256;74951;-38
2023/04/09 10:09:54;;;;;;;8.20;4.70;;;;;;;18.07;45.14;99931.19;107250;1257;69587;-38
2023/04/09 10:12:23;;;;;;;8.00;5.40;;;;;;;18.03;44.66;99924.23;107309;1257;73892;-38
2023/04/09 10:14:54;;;;;;;11.10;5.50;;;;;;;17.99;45.23;99928.79;107234;1257;61267;-38
2023/04/09 10:17:23;;;;;;;11.10;5.10;;;;;;;17.92;45.25;99924.00;107254;1257;60188;-38
2023/04/09 10:20:10;;;;;;;9.30;5.30;;;;;;;17.95;45.84;99921.89;107229;1260;74725;-38
2023/04/09 10:22:39;;;;;;;9.70;5.00;;;;;;;18.13;45.91;99920.13;107258;1260;68271;-38
2023/04/09 10:25:08;;;;;;;10.00;5.10;;;;;;;18.33;44.44;99916.21;107191;1257;73607;-38
2023/04/09 10:27:38;;;;;;;;;;;;;;;18.37;43.68;99914.79;107234;1257;60431;-38
2023/04/09 10:30:09;;;;;;;9.50;5.10;;;;;;;18.27;44.06;99913.17;107295;1257;60789;-38
2023/04/09 10:32:49;;;;;;;10.60;5.10;;;;;;;18.21;43.30;99913.42;107248;1257;75050;-38
2023/04/09 10:35:38;;;;;;;13.50;5.60;;;;;;;18.26;44.03;99905.50;107202;1257;70640;-38
2023/04/09 10:38:10;;;;;;;10.50;5.80;;;;;;;18.38;43.99;99901.52;107109;1257;73812;-38
2023/04/09 10:40:48;;;;;;;13.80;7.30;;;;;;;18.56;43.43;99897.08;107106;1257;61512;-38
2023/04/09 10:43:20;;;;;;;12.40;4.50;;;;;;;18.71;43.03;99895.67;107200;1256;61320;-38
2023/04/09 10:45:53;;;;;;;9.00;4.50;;;;;;;18.92;42.92;99890.84;107237;1256;74012;-38
2023/04/09 10:48:24;;;;;;;9.80;5.00;;;;;;;19.10;42.07;99886.15;107254;1257;69187;-38
2023/04/09 10:51:07;;;;;;;9.70;4.40;;;;;;;19.16;41.62;99879.28;107162;1257;72616;-38
2023/04/09 10:53:36;;;;;;;13.90;4.80;;;;;;;19.06;41.12;99880.30;107181;1257;61469;-38
2023/04/09 10:56:13;;;;;;;7.00;4.30;;;;;;;18.92;41.88;99877.09;106992;1257;61838;-38
2023/04/09 10:58:44;;;;;;;8.30;4.50;;;;;;;18.78;42.39;99879.94;107241;1257;74742;-38
2023/04/09 11:01:20;;;;;;;9.40;4.40;;;;;;;18.61;42.88;99878.55;107251;1257;69182;-38
2023/04/09 11:04:10;;;;;;;8.10;4.40;;;;;;;18.44;43.45;99881.27;107230;1256;73818;-38
2023/04/09 11:06:42;;;;;;;6.60;3.90;;;;;;;18.29;43.39;99875.45;107211;1257;61329;-38
2023/04/09 11:09:11;;;;;;;9.60;4.40;;;;;;;18.20;43.01;99874.23;107194;1257;60447;-38
2023/04/09 11:11:40;;;;;;;10.30;4.50;;;;;;;18.12;43.19;99870.41;107223;1257;74929;-38
2023/04/09 11:14:10;;;;;;;7.40;4.00;;;;;;;17.97;43.65;99874.78;107292;1257;68980;-38
2023/04/09 11:16:39;;;;;;;7.60;4.30;;;;;;;17.86;44.20;99868.92;107061;1257;73601;-38
2023/04/09 11:19:11;;;;;;;6.70;4.10;;;;;;;17.81;45.02;99872.15;107226;1257;61292;-38
2023/04/09 11:21:48;;;;;;;8.20;4.80;;;;;;;17.78;44.70;99870.59;107039;1257;61705;-38
2023/04/09 11:24:17;;;;;;;7.70;3.90;;;;;;;17.71;43.93;99868.48;107093;1256;75311;-38
2023/04/09 11:26:50;;;;;;;9.10;4.30;;;;;;;17.69;44.17;99866.85;107106;1257;68319;-38
2023/04/09 11:29:36;;;;;;;8.60;3.60;;;;;;;17.91;44.34;99860.45;107127;1260;73659;-38
2023/04/09 11:32:04;;;;;;;6.60;4.30;;;;;;;18.35;43.75;99860.20;107075;1257;61658;-38
2023/04/09 11:34:52;;;;;;;7.50;4.60;;;;;;;18.91;43.27;99849.94;107137;1257;61761;-38
2023/04/09 11:37:23;;;;;;;6.30;4.20;;;;;;;19.32;42.24;99842.23;107248;1257;74885;-38
2023/04/09 11:39:54;;;;;;;9.30;4.30;;;;;;;19.66;41.79;99839.17;107237;1260;69068;-38
2023/04/09 11:42:30;;;;;;;9.40;4.30;;;;;;;19.94;41.80;99838.58;107238;1256;73794;-38
2023/04/09 11:45:06;;;;;;;9.90;4.50;;;;;;;20.15;40.40;99835.73;107245;1257;61397;-38
2023/04/09 11:47:50;;;;;;;11.20;4.70;;;;;;;20.27;39.95;99831.00;107098;1256;61194;-38